Ammon, Idaho
Current Conditions -  °F | °C
As of 11:53 AM on Wednesday 26 Nov 2014 (Local Time) from KIDA Reporting Station
Broken Clouds Broken Clouds  
Wind Chill:   Ceiling: 12000
Heat Index:   Visibility: 10mi
Dew Point:   Wind: 28mph
Humidity: 68%   Direction: 210°SSW
Pressure: 30.27"   Gusts: 35mph
Location:  43.4284°N, 111.925°W
Report Text: KIDA 261853Z 21024G30KT 10SM SCT060 BKN120 BKN200 08/03 A3027 RMK AO2 PK WND 22032/1828 SLP251 T00830028
Loading
Personal Weather Stations






























Interactive Weather Map New forecast layout! Learn more

10-Day Weather Forecast

Advertisements
Track Severe Weather on mobile